createdAt,value
2018-03-18T00:00:42.119Z,27.40
2018-03-18T00:01:42.106Z,26.90
2018-03-18T00:02:42.097Z,26.90
2018-03-18T00:03:42.084Z,26.50
2018-03-18T00:04:42.068Z,27.40
2018-03-18T00:05:42.073Z,25.30
2018-03-18T00:06:42.041Z,26.40
2018-03-18T00:07:42.032Z,26.00
2018-03-18T00:08:42.023Z,26.60
2018-03-18T00:09:42.018Z,25.60
2018-03-18T00:10:41.996Z,27.50
2018-03-18T00:11:42.050Z,27.30
2018-03-18T00:12:41.983Z,27.60
2018-03-18T00:13:41.959Z,26.40
2018-03-18T00:14:41.954Z,26.10
2018-03-18T00:15:41.936Z,25.80
2018-03-18T00:16:41.919Z,27.30
2018-03-18T00:17:41.905Z,25.70
2018-03-18T00:18:41.895Z,27.30
2018-03-18T00:19:41.886Z,28.50
2018-03-18T00:20:41.898Z,27.20
2018-03-18T00:21:41.864Z,27.20
2018-03-18T00:22:41.845Z,27.20
2018-03-18T00:23:41.838Z,26.00
2018-03-18T00:24:41.826Z,27.80
2018-03-18T00:25:41.812Z,26.80
2018-03-18T00:26:41.798Z,25.50
2018-03-18T00:27:41.785Z,26.80
2018-03-18T00:28:41.782Z,26.40
2018-03-18T00:29:41.815Z,26.80
2018-03-18T00:30:41.750Z,25.80
2018-03-18T00:31:41.735Z,25.90
2018-03-18T00:32:41.721Z,23.90
2018-03-18T00:33:41.709Z,24.90
2018-03-18T00:34:41.708Z,24.70
2018-03-18T00:35:41.691Z,26.60
2018-03-18T00:36:41.673Z,24.20
2018-03-18T00:37:41.663Z,26.10
2018-03-18T00:38:41.648Z,27.80
2018-03-18T00:39:41.635Z,26.10
2018-03-18T00:40:41.629Z,25.80
2018-03-18T00:41:41.679Z,25.20
2018-03-18T00:42:41.611Z,27.10
2018-03-18T00:43:41.588Z,27.00
2018-03-18T00:44:41.574Z,25.70
2018-03-18T00:45:41.561Z,27.40
2018-03-18T00:46:41.550Z,27.00
2018-03-18T00:47:41.538Z,26.40
2018-03-18T00:48:41.527Z,27.10
2018-03-18T00:49:41.509Z,25.00
2018-03-18T00:50:41.502Z,24.90
2018-03-18T00:51:41.486Z,25.70
2018-03-18T00:52:41.474Z,25.00
2018-03-18T00:53:41.466Z,26.50
2018-03-18T00:54:41.471Z,26.90
2018-03-18T00:55:41.439Z,26.90
2018-03-18T00:56:41.428Z,26.00
2018-03-18T00:57:41.416Z,27.20
2018-03-18T00:58:41.401Z,25.20
2018-03-18T00:59:41.431Z,26.80
2018-03-18T01:00:41.377Z,26.30
2018-03-18T01:01:41.367Z,24.50
2018-03-18T01:02:41.350Z,26.40
2018-03-18T01:03:41.380Z,26.50
2018-03-18T01:04:41.328Z,27.50
2018-03-18T01:05:41.319Z,27.60
2018-03-18T01:06:41.304Z,25.10
2018-03-18T01:07:41.291Z,28.50
2018-03-18T01:08:41.279Z,26.50
2018-03-18T01:09:41.265Z,27.10
2018-03-18T01:10:41.251Z,25.90
2018-03-18T01:11:41.239Z,26.40
2018-03-18T01:12:41.224Z,26.60
2018-03-18T01:13:41.217Z,26.50
2018-03-18T01:14:41.204Z,25.60
2018-03-18T01:15:41.190Z,27.80
2018-03-18T01:16:41.178Z,26.20
2018-03-18T01:17:41.167Z,25.50
2018-03-18T01:18:41.153Z,27.10
2018-03-18T01:19:41.145Z,27.00
2018-03-18T01:20:41.132Z,26.60
2018-03-18T01:21:41.122Z,26.70
2018-03-18T01:22:41.115Z,27.60
2018-03-18T01:23:41.097Z,27.90
2018-03-18T01:24:41.080Z,26.10
2018-03-18T01:25:41.067Z,26.80
2018-03-18T01:26:41.054Z,27.30
2018-03-18T01:27:41.043Z,26.60
2018-03-18T01:28:41.031Z,27.10
2018-03-18T01:29:41.051Z,25.80
2018-03-18T01:30:41.008Z,26.40
2018-03-18T01:31:40.995Z,27.00
2018-03-18T01:32:40.980Z,26.40
2018-03-18T01:33:40.971Z,28.40
2018-03-18T02:05:28.230Z,19.30
2018-03-18T02:06:28.188Z,33.20
2018-03-18T02:08:21.155Z,34.30
2018-03-18T02:09:21.132Z,32.40
2018-03-18T02:11:14.051Z,34.80
2018-03-18T02:12:14.016Z,34.80
2018-03-18T02:14:06.915Z,31.40
2018-03-18T02:15:06.888Z,30.30
2018-03-18T02:16:59.848Z,30.20
2018-03-18T02:17:59.812Z,31.70
2018-03-18T02:19:52.723Z,30.10
2018-03-18T02:20:52.736Z,29.20
2018-03-18T02:22:45.649Z,28.60
2018-03-18T02:23:45.619Z,29.80
2018-03-18T02:25:38.518Z,30.10
2018-03-18T02:26:38.488Z,29.50
2018-03-18T02:28:31.455Z,29.60
2018-03-18T02:29:31.434Z,29.70
2018-03-18T02:31:24.428Z,27.90
2018-03-18T02:32:24.395Z,30.00
2018-03-18T02:34:17.260Z,31.60
2018-03-18T02:35:17.245Z,28.50
2018-03-18T02:37:10.175Z,28.30
2018-03-18T02:38:10.145Z,29.80
2018-03-18T02:40:03.095Z,29.70
2018-03-18T02:41:03.043Z,26.50
2018-03-18T02:42:55.965Z,27.30
2018-03-18T02:43:55.932Z,27.20
2018-03-18T02:45:48.866Z,26.60
2018-03-18T02:46:48.837Z,27.30
2018-03-18T02:48:41.759Z,27.10
2018-03-18T02:49:41.739Z,27.40
2018-03-18T02:51:34.688Z,26.30
2018-03-18T02:52:34.657Z,26.00
2018-03-18T02:54:27.559Z,25.20
2018-03-18T02:55:27.544Z,26.40
2018-03-18T02:57:20.496Z,26.00
2018-03-18T02:58:20.469Z,26.10
2018-03-18T03:00:13.368Z,25.30
2018-03-18T03:01:13.352Z,26.40
2018-03-18T03:03:06.344Z,25.30
2018-03-18T03:04:06.330Z,25.00
2018-03-18T03:05:59.783Z,26.10
2018-03-18T03:06:59.258Z,26.20
2018-03-18T03:08:52.228Z,24.50
2018-03-18T03:09:52.172Z,24.80
2018-03-18T03:11:45.101Z,24.70
2018-03-18T03:12:45.073Z,24.80
2018-03-18T03:14:38.037Z,25.00
2018-03-18T03:15:38.006Z,26.00
2018-03-18T03:17:30.963Z,25.90
2018-03-18T03:18:30.939Z,26.70
2018-03-18T03:20:23.947Z,27.70
2018-03-18T03:21:23.924Z,25.70
2018-03-18T03:23:16.873Z,25.70
2018-03-18T03:24:16.841Z,24.60
2018-03-18T03:26:09.802Z,27.30
2018-03-18T03:27:09.763Z,26.00
2018-03-18T03:29:02.715Z,27.60
2018-03-18T03:30:02.715Z,29.50
2018-03-18T03:31:55.639Z,25.30
2018-03-18T03:32:55.603Z,27.90
2018-03-18T03:34:48.495Z,28.10
2018-03-18T03:35:48.508Z,29.90
2018-03-18T03:37:41.393Z,27.70
2018-03-18T03:38:41.362Z,28.50
2018-03-18T03:40:34.309Z,29.50
2018-03-18T03:41:34.296Z,28.80
2018-03-18T03:43:27.249Z,29.70
2018-03-18T03:44:27.207Z,30.30
2018-03-18T03:46:20.132Z,28.00
2018-03-18T03:47:20.104Z,27.30
2018-03-18T03:49:13.082Z,31.00
2018-03-18T03:50:13.061Z,29.10
2018-03-18T03:52:06.005Z,29.10
2018-03-18T03:53:05.983Z,28.80
2018-03-18T03:54:58.881Z,30.60
2018-03-18T03:55:58.865Z,30.00
2018-03-18T03:57:51.826Z,28.30
2018-03-18T03:58:51.789Z,28.60
2018-03-18T04:00:44.718Z,27.80
2018-03-18T04:01:44.701Z,28.80
2018-03-18T04:03:37.639Z,29.40
2018-03-18T04:04:37.604Z,27.90
2018-03-18T04:06:30.501Z,28.30
2018-03-18T04:07:30.473Z,28.80
2018-03-18T04:09:23.450Z,28.40
2018-03-18T04:10:23.433Z,27.20
2018-03-18T04:12:16.378Z,26.30
2018-03-18T04:13:16.344Z,25.70
2018-03-18T04:15:09.250Z,28.60
2018-03-18T04:16:09.229Z,26.40
2018-03-18T04:18:02.154Z,28.40
2018-03-18T04:19:02.109Z,29.70
2018-03-18T04:20:55.070Z,26.70
2018-03-18T04:21:55.017Z,28.00
2018-03-18T04:23:47.924Z,28.40
2018-03-18T04:24:47.891Z,29.60
2018-03-18T04:26:40.844Z,29.20
2018-03-18T04:27:40.812Z,28.50
2018-03-18T04:29:33.744Z,29.30
2018-03-18T04:30:33.723Z,30.80
2018-03-18T04:32:26.673Z,28.80
2018-03-18T04:33:26.637Z,30.90
2018-03-18T04:35:19.568Z,30.20
2018-03-18T04:36:19.524Z,30.00
2018-03-18T04:38:12.453Z,29.30
2018-03-18T04:39:12.428Z,30.50
2018-03-18T04:41:05.418Z,29.70
2018-03-18T04:42:05.398Z,31.10
2018-03-18T04:43:58.289Z,30.70
2018-03-18T04:44:58.264Z,29.90
2018-03-18T04:46:51.244Z,34.10
2018-03-18T04:47:51.221Z,59.50
2018-03-18T04:49:44.143Z,53.10
2018-03-18T04:50:44.149Z,65.20
2018-03-18T04:52:37.082Z,33.80
2018-03-18T04:53:37.054Z,31.10
2018-03-18T04:55:29.948Z,30.50
2018-03-18T04:56:29.933Z,30.30
2018-03-18T04:58:22.865Z,30.00
2018-03-18T04:59:22.825Z,31.40
2018-03-18T05:01:15.717Z,30.10
2018-03-18T05:02:15.683Z,29.30
2018-03-18T05:04:08.680Z,29.80
2018-03-18T05:05:08.630Z,30.90
2018-03-18T05:07:01.580Z,32.00
2018-03-18T05:08:01.495Z,29.90
2018-03-18T05:09:54.416Z,34.60
2018-03-18T05:10:54.409Z,32.40
2018-03-18T05:12:47.325Z,32.00
2018-03-18T05:13:47.300Z,33.90
2018-03-18T05:15:40.261Z,33.90
2018-03-18T05:16:40.247Z,32.50
2018-03-18T05:18:33.177Z,33.20
2018-03-18T05:19:33.157Z,28.30
2018-03-18T05:21:26.084Z,30.20
2018-03-18T05:22:26.069Z,29.40
2018-03-18T05:24:19.977Z,30.70
2018-03-18T05:25:19.943Z,33.50
2018-03-18T05:27:12.918Z,30.90
2018-03-18T05:28:12.862Z,32.20
2018-03-18T05:30:05.822Z,31.90
2018-03-18T05:31:05.809Z,31.90
2018-03-18T05:32:58.721Z,33.30
2018-03-18T05:33:58.677Z,30.20
2018-03-18T05:35:51.566Z,32.80
2018-03-18T05:36:51.548Z,31.20
2018-03-18T05:38:44.543Z,31.80
2018-03-18T05:39:44.644Z,34.70
2018-03-18T05:41:37.490Z,33.40
2018-03-18T05:42:37.467Z,33.60
2018-03-18T05:44:30.463Z,32.20
2018-03-18T05:45:30.432Z,31.90
2018-03-18T05:47:23.343Z,33.30
2018-03-18T05:48:23.313Z,31.10
2018-03-18T05:50:16.327Z,31.10
2018-03-18T05:51:16.303Z,31.10
2018-03-18T05:53:09.204Z,31.90
2018-03-18T05:54:09.169Z,31.10
2018-03-18T05:56:02.096Z,31.10
2018-03-18T05:57:02.082Z,32.60
2018-03-18T05:58:54.988Z,33.50
2018-03-18T05:59:54.965Z,31.40
2018-03-18T06:01:47.978Z,34.70
2018-03-18T06:02:47.906Z,34.30
2018-03-18T06:04:40.866Z,31.00
2018-03-18T06:05:40.858Z,34.90
2018-03-18T06:07:33.757Z,34.00
2018-03-18T06:08:33.732Z,35.40
2018-03-18T06:10:26.690Z,32.40
2018-03-18T06:11:26.669Z,33.00
2018-03-18T06:13:19.585Z,34.20
2018-03-18T06:14:19.558Z,32.00
2018-03-18T06:16:12.489Z,33.10
2018-03-18T06:17:12.473Z,32.40
2018-03-18T06:19:05.355Z,31.40
2018-03-18T06:20:05.325Z,34.30
2018-03-18T06:21:58.316Z,34.40
2018-03-18T06:22:58.420Z,33.40
2018-03-18T06:24:51.203Z,33.70
2018-03-18T06:25:51.171Z,32.90
2018-03-18T06:27:44.106Z,36.20
2018-03-18T06:28:44.071Z,30.50
2018-03-18T06:30:36.959Z,33.70
2018-03-18T06:31:36.939Z,34.30
2018-03-18T06:33:29.927Z,34.30
2018-03-18T06:34:29.902Z,31.70
2018-03-18T06:36:22.802Z,29.10
2018-03-18T06:37:22.782Z,33.50
2018-03-18T06:39:15.690Z,32.80
2018-03-18T06:40:15.689Z,32.00
2018-03-18T06:42:08.610Z,46.00
2018-03-18T06:43:08.588Z,45.30
2018-03-18T06:45:01.534Z,51.80
2018-03-18T06:46:01.507Z,57.60
2018-03-18T06:47:54.508Z,48.30
2018-03-18T06:48:54.484Z,41.30
2018-03-18T06:50:47.425Z,37.80
2018-03-18T06:51:47.433Z,35.50
2018-03-18T06:53:40.365Z,34.70
2018-03-18T06:54:40.345Z,33.30
2018-03-18T06:56:33.302Z,31.20
2018-03-18T06:57:33.308Z,31.80
2018-03-18T06:59:26.198Z,33.30
2018-03-18T07:00:26.176Z,31.70
2018-03-18T07:02:19.118Z,33.30
2018-03-18T07:03:19.122Z,33.10
2018-03-18T07:05:12.057Z,32.10
2018-03-18T07:06:12.024Z,31.90
2018-03-18T07:08:04.990Z,29.90
2018-03-18T07:09:04.930Z,31.50
2018-03-18T07:10:57.840Z,30.00
2018-03-18T07:11:57.830Z,32.70
2018-03-18T07:13:50.741Z,31.00
2018-03-18T07:14:50.736Z,31.30
2018-03-18T07:16:43.610Z,30.40
2018-03-18T07:17:43.591Z,32.70
2018-03-18T07:19:36.546Z,33.50
2018-03-18T07:20:36.526Z,30.80
2018-03-18T07:22:29.417Z,32.10
2018-03-18T07:23:29.392Z,31.40
2018-03-18T07:25:22.391Z,31.20
2018-03-18T07:26:22.324Z,31.00
2018-03-18T07:28:15.270Z,31.20
2018-03-18T07:29:15.211Z,31.20
2018-03-18T07:31:09.131Z,31.50
2018-03-18T07:32:09.115Z,36.90
2018-03-18T07:34:02.114Z,33.30
2018-03-18T07:35:02.066Z,32.30
2018-03-18T07:36:54.976Z,34.40
2018-03-18T07:37:54.944Z,32.00
2018-03-18T07:39:47.898Z,29.30
2018-03-18T07:40:47.865Z,29.90
2018-03-18T07:42:40.762Z,31.60
2018-03-18T07:43:40.761Z,29.10
2018-03-18T07:45:33.665Z,33.50
2018-03-18T07:46:33.643Z,29.20
2018-03-18T07:48:26.613Z,30.70
2018-03-18T07:49:26.582Z,29.00
2018-03-18T07:51:19.556Z,28.90
2018-03-18T07:52:19.585Z,31.00
2018-03-18T07:54:12.427Z,29.70
2018-03-18T07:55:12.416Z,30.10
2018-03-18T07:57:05.309Z,27.90
2018-03-18T07:58:05.309Z,30.00
2018-03-18T07:59:58.208Z,38.20
2018-03-18T08:00:58.180Z,42.90
2018-03-18T08:02:51.140Z,28.60
2018-03-18T08:03:51.114Z,28.20
2018-03-18T08:05:44.151Z,31.20
2018-03-18T08:06:44.052Z,29.80
2018-03-18T08:08:37.003Z,47.80
2018-03-18T08:09:36.970Z,29.70
2018-03-18T08:11:29.887Z,29.00
2018-03-18T08:12:29.859Z,28.90
2018-03-18T08:14:22.794Z,29.60
2018-03-18T08:15:22.770Z,31.30
2018-03-18T08:17:15.650Z,29.00
2018-03-18T08:18:15.632Z,27.60
2018-03-18T08:20:08.546Z,28.70
2018-03-18T08:21:08.521Z,33.30
2018-03-18T08:23:01.440Z,29.30
2018-03-18T08:24:01.415Z,30.70
2018-03-18T08:25:54.332Z,30.80
2018-03-18T08:26:54.293Z,28.70
2018-03-18T08:28:47.208Z,30.40
2018-03-18T08:29:47.171Z,29.10
2018-03-18T08:31:40.112Z,30.40
2018-03-18T08:32:40.082Z,32.50
2018-03-18T08:34:32.971Z,31.40
2018-03-18T08:35:32.945Z,31.40
2018-03-18T08:37:25.845Z,42.90
2018-03-18T08:38:25.841Z,36.70
2018-03-18T08:40:18.746Z,28.80
2018-03-18T08:41:18.792Z,30.10
2018-03-18T08:43:11.612Z,34.10
2018-03-18T08:44:11.589Z,29.90
2018-03-18T08:46:04.497Z,29.80
2018-03-18T08:47:04.470Z,29.40
2018-03-18T08:48:57.415Z,31.30
2018-03-18T08:49:57.336Z,28.40
2018-03-18T08:51:50.766Z,30.30
2018-03-18T08:52:50.734Z,30.30
2018-03-18T08:54:43.631Z,30.70
2018-03-18T08:55:43.591Z,28.50
2018-03-18T08:57:36.547Z,29.40
2018-03-18T08:58:36.504Z,29.50
2018-03-18T09:00:29.443Z,26.90
2018-03-18T09:01:29.415Z,31.60
2018-03-18T09:03:22.297Z,28.70
2018-03-18T09:04:22.276Z,31.00
2018-03-18T09:06:15.204Z,29.70
2018-03-18T09:07:15.174Z,29.40
2018-03-18T09:09:08.063Z,29.80
2018-03-18T09:10:08.038Z,29.90
2018-03-18T09:12:00.954Z,29.80
2018-03-18T09:13:00.931Z,29.00
2018-03-18T09:14:54.411Z,27.30
2018-03-18T09:15:53.792Z,29.10
2018-03-18T09:17:46.689Z,27.60
2018-03-18T09:18:46.647Z,31.60
2018-03-18T09:20:39.582Z,27.30
2018-03-18T09:21:39.521Z,28.00
2018-03-18T09:23:32.430Z,27.20
2018-03-18T09:24:32.399Z,28.30
2018-03-18T09:26:25.300Z,27.60
2018-03-18T09:27:25.265Z,28.10
2018-03-18T09:29:18.149Z,28.90
2018-03-18T09:30:18.154Z,28.50
2018-03-18T09:32:11.066Z,30.20
2018-03-18T09:33:11.036Z,27.70
2018-03-18T09:35:03.947Z,28.60
2018-03-18T09:36:03.910Z,28.20
2018-03-18T09:37:56.808Z,27.40
2018-03-18T09:38:56.782Z,27.90
2018-03-18T09:40:49.719Z,28.90
2018-03-18T09:41:49.701Z,27.80
2018-03-18T09:43:42.637Z,26.30
2018-03-18T09:44:42.614Z,26.70
2018-03-18T09:46:35.568Z,26.70
2018-03-18T09:47:35.506Z,28.90
2018-03-18T09:49:28.432Z,29.50
2018-03-18T09:50:28.415Z,27.80
2018-03-18T09:52:21.441Z,29.70
2018-03-18T09:53:21.419Z,27.40
2018-03-18T09:55:14.225Z,27.20
2018-03-18T09:56:14.221Z,31.30
2018-03-18T09:58:07.155Z,25.40
2018-03-18T09:59:07.119Z,27.90
2018-03-18T10:01:00.016Z,27.60
2018-03-18T10:02:00.002Z,29.60
2018-03-18T10:03:52.912Z,28.70
2018-03-18T10:04:52.891Z,28.90
2018-03-18T10:06:45.779Z,27.90
2018-03-18T10:07:45.756Z,27.20
2018-03-18T10:09:38.673Z,29.50
2018-03-18T10:10:38.620Z,28.90
2018-03-18T10:12:31.554Z,26.00
2018-03-18T10:13:31.522Z,24.90
2018-03-18T10:15:24.414Z,28.40
2018-03-18T10:16:24.400Z,27.30
2018-03-18T10:18:17.313Z,35.30
2018-03-18T10:19:17.291Z,47.90
2018-03-18T10:21:10.188Z,40.10
2018-03-18T10:22:10.169Z,28.60
2018-03-18T10:24:03.086Z,25.60
2018-03-18T10:25:03.101Z,26.00
2018-03-18T10:26:55.972Z,26.20
2018-03-18T10:27:55.943Z,28.30
2018-03-18T10:29:48.839Z,25.80
2018-03-18T10:30:48.819Z,27.50
2018-03-18T10:32:41.749Z,24.50
2018-03-18T10:33:41.703Z,26.10
2018-03-18T10:35:34.609Z,25.60
2018-03-18T10:36:34.608Z,25.80
2018-03-18T10:38:27.512Z,24.80
2018-03-18T10:39:27.487Z,28.70
2018-03-18T10:41:20.388Z,25.30
2018-03-18T10:42:20.372Z,26.10
2018-03-18T10:44:13.296Z,27.10
2018-03-18T10:45:13.270Z,25.80
2018-03-18T10:47:06.205Z,24.20
2018-03-18T10:48:06.164Z,23.90
2018-03-18T10:49:59.077Z,23.60
2018-03-18T10:50:59.058Z,25.70
2018-03-18T10:52:51.971Z,25.70
2018-03-18T10:53:51.952Z,24.50
2018-03-18T10:55:44.930Z,24.00
2018-03-18T10:56:44.879Z,25.60
2018-03-18T10:58:37.798Z,28.00
2018-03-18T10:59:37.760Z,23.70
2018-03-18T11:01:30.704Z,23.40
2018-03-18T11:02:30.691Z,24.60
2018-03-18T11:04:23.602Z,23.90
2018-03-18T11:05:23.588Z,24.80
2018-03-18T11:07:16.516Z,22.60
2018-03-18T11:08:16.488Z,24.00
2018-03-18T11:10:09.463Z,23.10
2018-03-18T11:11:09.443Z,25.00
2018-03-18T11:13:02.385Z,23.90
2018-03-18T11:14:02.368Z,22.80
2018-03-18T11:15:55.307Z,23.80
2018-03-18T11:16:55.294Z,23.20
2018-03-18T11:18:48.232Z,24.90
2018-03-18T11:19:48.204Z,23.30
2018-03-18T11:21:41.184Z,24.00
2018-03-18T11:22:41.170Z,24.40
2018-03-18T11:24:34.144Z,24.10
2018-03-18T11:25:34.120Z,23.80
2018-03-18T11:26:34.112Z,23.50
2018-03-18T11:27:34.124Z,23.10
2018-03-18T11:28:34.118Z,24.70
2018-03-18T11:29:34.171Z,22.30
2018-03-18T11:30:34.156Z,22.20
2018-03-18T11:31:34.146Z,22.00
2018-03-18T11:32:34.086Z,22.40
2018-03-18T11:33:34.080Z,22.40
2018-03-18T11:34:34.083Z,23.60
2018-03-18T11:35:34.081Z,23.40
2018-03-18T11:36:34.076Z,23.90
2018-03-18T11:37:34.072Z,22.90
2018-03-18T11:38:34.064Z,23.30
2018-03-18T11:39:34.055Z,23.20
2018-03-18T11:40:34.057Z,23.30
2018-03-18T11:41:34.048Z,23.10
2018-03-18T11:42:34.054Z,23.30
2018-03-18T11:43:34.074Z,22.70
2018-03-18T11:44:34.049Z,22.40
2018-03-18T11:45:34.029Z,22.00
2018-03-18T11:46:34.025Z,22.90
2018-03-18T11:47:34.021Z,23.20
2018-03-18T11:48:34.020Z,21.40
2018-03-18T11:49:34.113Z,22.10
2018-03-18T11:50:34.014Z,23.40
2018-03-18T11:51:34.009Z,24.00
2018-03-18T11:52:34.072Z,22.40
2018-03-18T11:53:33.997Z,22.60
2018-03-18T11:54:33.992Z,23.10
2018-03-18T11:55:34.028Z,23.60
2018-03-18T11:56:33.984Z,23.40
2018-03-18T11:57:34.003Z,23.10
2018-03-18T11:58:33.982Z,24.90
2018-03-18T11:59:33.969Z,23.00
2018-03-18T12:00:33.962Z,23.80
2018-03-18T12:01:33.983Z,23.30
2018-03-18T12:02:33.966Z,25.60
2018-03-18T12:03:33.952Z,22.80
2018-03-18T12:04:33.934Z,25.20
2018-03-18T12:05:33.990Z,24.00
2018-03-18T12:06:33.926Z,24.50
2018-03-18T12:07:33.929Z,26.30
2018-03-18T12:08:33.933Z,24.30
2018-03-18T12:09:33.921Z,24.20
2018-03-18T12:10:33.906Z,23.60
2018-03-18T12:11:33.899Z,23.50
2018-03-18T12:12:33.896Z,25.00
2018-03-18T12:13:33.904Z,24.90
2018-03-18T12:14:33.883Z,24.70
2018-03-18T12:15:33.875Z,23.80
2018-03-18T12:16:33.869Z,25.70
2018-03-18T12:17:33.872Z,23.30
2018-03-18T12:18:33.865Z,23.60
2018-03-18T12:19:33.854Z,24.40
2018-03-18T12:20:33.851Z,24.60
2018-03-18T12:21:33.851Z,24.30
2018-03-18T12:22:33.845Z,25.30
2018-03-18T12:23:33.833Z,23.70
2018-03-18T12:24:33.830Z,23.90
2018-03-18T12:25:33.819Z,26.10
2018-03-18T12:26:33.816Z,24.00
2018-03-18T12:27:33.818Z,26.30
2018-03-18T12:28:33.841Z,23.40
2018-03-18T12:29:33.794Z,25.70
2018-03-18T12:30:33.844Z,25.10
2018-03-18T12:31:33.797Z,25.20
2018-03-18T12:32:33.781Z,24.60
2018-03-18T12:33:33.772Z,24.80
2018-03-18T12:34:33.763Z,25.30
2018-03-18T12:35:33.755Z,24.80
2018-03-18T12:36:33.750Z,24.40
2018-03-18T12:37:33.745Z,26.20
2018-03-18T12:38:33.739Z,23.20
2018-03-18T12:39:33.729Z,23.50
2018-03-18T12:40:33.728Z,23.40
2018-03-18T12:41:33.726Z,26.60
2018-03-18T12:42:33.728Z,24.30
2018-03-18T12:43:33.715Z,24.80
2018-03-18T12:44:33.701Z,26.60
2018-03-18T12:45:33.697Z,23.90
2018-03-18T12:46:33.694Z,25.50
2018-03-18T12:47:33.687Z,25.00
2018-03-18T12:48:33.681Z,25.70
2018-03-18T12:49:33.671Z,25.70
2018-03-18T12:50:33.663Z,26.30
2018-03-18T12:51:33.657Z,25.50
2018-03-18T12:52:33.653Z,25.80
2018-03-18T12:53:33.645Z,25.00
2018-03-18T12:54:33.643Z,27.80
2018-03-18T12:55:33.632Z,26.10
2018-03-18T12:56:33.635Z,27.70
2018-03-18T12:57:33.626Z,23.60
2018-03-18T12:58:33.612Z,25.20
2018-03-18T12:59:33.611Z,25.00
2018-03-18T13:00:33.602Z,26.30
2018-03-18T13:01:33.590Z,26.90
2018-03-18T13:02:33.588Z,27.40
2018-03-18T13:03:33.580Z,25.80
2018-03-18T13:04:33.592Z,27.70
2018-03-18T13:05:33.570Z,26.60
2018-03-18T13:06:33.581Z,27.60
2018-03-18T13:07:33.557Z,26.40
2018-03-18T13:08:33.560Z,25.60
2018-03-18T13:09:33.543Z,25.30
2018-03-18T13:10:33.541Z,26.50
2018-03-18T13:11:33.552Z,27.30
2018-03-18T13:12:33.536Z,27.60
2018-03-18T13:13:33.519Z,27.80
2018-03-18T13:14:33.508Z,26.40
2018-03-18T13:15:33.503Z,28.10
2018-03-18T13:16:33.492Z,27.40
2018-03-18T13:17:33.503Z,27.10
2018-03-18T13:18:33.484Z,27.30
2018-03-18T13:19:33.478Z,27.00
2018-03-18T13:20:33.464Z,28.50
2018-03-18T13:21:33.459Z,25.50
2018-03-18T13:22:33.463Z,28.20
2018-03-18T13:23:33.443Z,27.60
2018-03-18T13:24:33.437Z,27.60
2018-03-18T13:25:33.442Z,29.40
2018-03-18T13:26:33.427Z,27.40
2018-03-18T13:27:33.415Z,27.80
2018-03-18T13:28:33.414Z,30.00
2018-03-18T13:29:33.398Z,28.10
2018-03-18T13:30:33.396Z,27.00
2018-03-18T13:31:33.382Z,27.90
2018-03-18T13:32:33.380Z,28.90
2018-03-18T13:33:33.379Z,26.30
2018-03-18T13:34:33.363Z,26.00
2018-03-18T13:35:33.353Z,28.40
2018-03-18T13:36:33.346Z,28.40
2018-03-18T13:37:33.341Z,29.30
2018-03-18T13:38:33.330Z,29.90
2018-03-18T13:39:33.323Z,28.80
2018-03-18T13:40:33.319Z,28.40
2018-03-18T13:41:33.307Z,27.50
2018-03-18T13:42:33.291Z,29.60
2018-03-18T13:43:33.295Z,28.10
2018-03-18T13:44:33.284Z,27.50
2018-03-18T13:45:33.276Z,27.90
2018-03-18T13:46:33.271Z,28.00
2018-03-18T13:47:33.263Z,26.20
2018-03-18T13:48:33.271Z,26.10
2018-03-18T13:49:33.244Z,25.20
2018-03-18T13:50:33.245Z,26.40
2018-03-18T13:51:33.232Z,27.20
2018-03-18T13:52:33.244Z,26.80
2018-03-18T13:53:33.277Z,29.80
2018-03-18T13:54:33.256Z,29.10
2018-03-18T13:55:33.189Z,27.60
2018-03-18T13:56:33.198Z,27.60
2018-03-18T13:57:33.200Z,27.30
2018-03-18T13:58:33.182Z,27.90
2018-03-18T13:59:33.175Z,28.00
2018-03-18T14:00:33.167Z,25.20
2018-03-18T14:01:33.164Z,29.70
2018-03-18T14:02:33.155Z,26.90
2018-03-18T14:03:33.142Z,28.00
2018-03-18T14:04:33.136Z,27.00
2018-03-18T14:05:33.159Z,25.60
2018-03-18T14:06:33.125Z,29.90
2018-03-18T14:07:33.112Z,26.40
2018-03-18T14:08:33.107Z,26.80
2018-03-18T14:09:33.109Z,26.40
2018-03-18T14:10:33.093Z,28.00
2018-03-18T14:11:33.085Z,26.00
2018-03-18T14:12:33.110Z,26.30
2018-03-18T14:13:33.078Z,27.70
2018-03-18T14:14:33.062Z,30.00
2018-03-18T14:15:33.051Z,26.90
2018-03-18T14:16:33.045Z,27.80
2018-03-18T14:17:33.048Z,25.90
2018-03-18T14:18:33.111Z,25.40
2018-03-18T14:19:33.024Z,25.90
2018-03-18T14:20:33.018Z,27.80
2018-03-18T14:21:32.999Z,25.90
2018-03-18T14:22:33.106Z,26.00
2018-03-18T14:23:32.997Z,23.90
2018-03-18T14:24:32.989Z,29.20
2018-03-18T14:25:32.971Z,28.10
2018-03-18T14:26:32.973Z,24.70
2018-03-18T14:27:32.995Z,26.30
2018-03-18T14:28:32.969Z,26.50
2018-03-18T14:29:32.952Z,25.30
2018-03-18T14:30:32.944Z,24.70
2018-03-18T14:31:32.954Z,26.90
2018-03-18T14:32:32.925Z,26.80
2018-03-18T14:33:32.938Z,25.20
2018-03-18T14:34:32.909Z,26.50
2018-03-18T14:35:32.908Z,25.30
2018-03-18T14:36:32.896Z,26.00
2018-03-18T14:37:32.910Z,27.30
2018-03-18T14:38:32.885Z,25.00
2018-03-18T14:39:32.878Z,25.70
2018-03-18T14:40:32.867Z,28.50
2018-03-18T14:41:32.856Z,28.20
2018-03-18T14:42:32.840Z,29.40
2018-03-18T14:43:32.839Z,33.90
2018-03-18T14:44:32.830Z,27.50
2018-03-18T14:45:32.821Z,30.50
2018-03-18T14:46:32.819Z,25.40
2018-03-18T14:47:32.809Z,27.60
2018-03-18T14:48:32.803Z,30.60
2018-03-18T14:49:32.787Z,24.50
2018-03-18T14:50:32.790Z,31.40
2018-03-18T14:51:32.776Z,29.80
2018-03-18T14:52:32.777Z,32.10
2018-03-18T14:53:32.753Z,30.50
2018-03-18T14:54:32.745Z,29.80
2018-03-18T14:55:32.738Z,30.30
2018-03-18T14:56:32.733Z,25.50
2018-03-18T14:57:32.725Z,27.60
2018-03-18T14:58:32.714Z,27.40
2018-03-18T14:59:32.701Z,27.50
2018-03-18T15:00:32.692Z,30.70
2018-03-18T15:01:32.776Z,26.00
2018-03-18T15:02:32.677Z,27.80
2018-03-18T15:03:32.669Z,24.90
2018-03-18T15:04:32.651Z,26.30
2018-03-18T15:05:32.648Z,27.10
2018-03-18T15:06:32.663Z,28.80
2018-03-18T15:07:32.626Z,26.20
2018-03-18T15:08:32.612Z,25.70
2018-03-18T15:09:32.608Z,27.40
2018-03-18T15:10:32.642Z,27.50
2018-03-18T15:11:32.592Z,28.30
2018-03-18T15:12:32.581Z,28.00
2018-03-18T15:13:32.576Z,26.60
2018-03-18T15:14:32.609Z,28.40
2018-03-18T15:15:32.555Z,29.50
2018-03-18T15:16:32.547Z,27.70
2018-03-18T15:17:32.531Z,29.30
2018-03-18T15:18:32.520Z,31.10
2018-03-18T15:19:32.521Z,58.40
2018-03-18T15:20:32.504Z,27.90
2018-03-18T15:21:32.495Z,27.50
2018-03-18T15:22:32.482Z,28.60
2018-03-18T15:23:32.481Z,27.20
2018-03-18T15:24:32.462Z,25.80
2018-03-18T15:25:32.451Z,27.80
2018-03-18T15:26:32.455Z,27.70
2018-03-18T15:27:32.434Z,26.90
2018-03-18T15:28:32.428Z,30.10
2018-03-18T15:29:32.410Z,27.80
2018-03-18T15:30:32.430Z,27.70
2018-03-18T15:31:32.393Z,28.10
2018-03-18T15:32:32.398Z,28.70
2018-03-18T15:33:32.376Z,28.80
2018-03-18T15:34:32.362Z,27.60
2018-03-18T15:35:32.350Z,26.00
2018-03-18T15:36:32.344Z,25.90
2018-03-18T15:37:32.338Z,28.00
2018-03-18T15:38:32.322Z,26.00
2018-03-18T15:39:32.311Z,27.20
2018-03-18T15:40:32.300Z,25.80
2018-03-18T15:41:32.295Z,28.00
2018-03-18T15:42:32.361Z,27.20
2018-03-18T15:43:32.274Z,27.20
2018-03-18T15:44:32.259Z,27.00
2018-03-18T15:45:32.247Z,27.50
2018-03-18T15:46:32.242Z,28.60
2018-03-18T15:47:32.226Z,31.00
2018-03-18T15:48:32.234Z,29.30
2018-03-18T15:49:32.207Z,27.30
2018-03-18T15:50:32.196Z,27.50
2018-03-18T15:51:32.184Z,28.00
2018-03-18T15:52:32.206Z,27.40
2018-03-18T15:53:32.164Z,26.60
2018-03-18T15:54:32.152Z,27.70
2018-03-18T15:55:32.140Z,30.00
2018-03-18T15:56:32.133Z,29.00
2018-03-18T15:57:32.120Z,28.50
2018-03-18T15:58:32.119Z,29.50
2018-03-18T15:59:32.098Z,28.10
2018-03-18T16:00:32.182Z,28.40
2018-03-18T16:01:32.083Z,28.00
2018-03-18T16:02:32.070Z,28.60
2018-03-18T16:03:32.062Z,29.80
2018-03-18T16:04:32.047Z,29.60
2018-03-18T16:05:32.033Z,30.30
2018-03-18T16:06:32.029Z,28.10
2018-03-18T16:07:32.011Z,26.70
2018-03-18T16:08:31.997Z,27.00
2018-03-18T16:09:31.989Z,28.80
2018-03-18T16:10:31.981Z,27.80
2018-03-18T16:11:31.981Z,28.50
2018-03-18T16:12:31.950Z,29.90
2018-03-18T16:13:31.946Z,30.00
2018-03-18T16:14:31.935Z,31.00